Main page
METAR-TAF:

METAR-TAF

Airports :

Florida Keys Marathon Airport

Marathon, Florida, United States

latitude: 24-43-33N, longitude: 081-02-52W, elevation: 7 ft

Current weather observation

The report was made 49 minutes ago, at 11:53 UTC
Wind 7 mph from the East/Southeast
Temperature 84°F
Humidity 79%
Pressure 30.04 in. Hg
Visibility: 10 miles
Clear sky

METAR: KMTH 281153Z AUTO 12006KT 10SM CLR 29/25 A3004 RMK AO2 SLP172 T02890250 10289 20278 53012 TSNO

Time: 08:42 (12:42 UTC)

Forecast

The report was made 1 hour and 17 minutes ago, at 11:25 UTC
Forecast valid from 28 at 12 UTC to 29 at 12 UTC
Wind 8 mph from the Southeast
Visibility: 6 miles
Scattered clouds at a height of 1500 ft

TAF: KMTH 281125Z 2812/2912 13007KT P6SM SCT015

Weather observations and forecasts of more than 4000 airports (METAR and TAF reports).

The available stations are represented by yellow and red dots on the map.

Hover mouse over dot to see the name of the station.

Then click to see weather observations and forecasts.

To change the map : click on the green buttons with a black cross to zoom in, on the green button with a dash to zoom out, or on the green arrows for adjacent maps.


METAR-TAF: